sensor_id;sensor_type;location;lat;lon;timestamp;P1;durP1;ratioP1;P2;durP2;ratioP2
79009;SDS011;73031;44.726;37.760;2024-02-15T00:00:01;22.60;;;14.02;;
79009;SDS011;73031;44.726;37.760;2024-02-15T00:01:04;22.65;;;12.45;;
79009;SDS011;73031;44.726;37.760;2024-02-15T00:02:05;19.48;;;12.00;;
79009;SDS011;73031;44.726;37.760;2024-02-15T00:03:06;19.27;;;12.13;;
79009;SDS011;73031;44.726;37.760;2024-02-15T00:04:08;20.27;;;12.65;;
79009;SDS011;73031;44.726;37.760;2024-02-15T00:05:11;21.60;;;12.60;;
79009;SDS011;73031;44.726;37.760;2024-02-15T00:06:13;23.48;;;12.82;;
79009;SDS011;73031;44.726;37.760;2024-02-15T00:07:14;22.75;;;12.20;;
79009;SDS011;73031;44.726;37.760;2024-02-15T00:08:15;20.65;;;11.88;;
79009;SDS011;73031;44.726;37.760;2024-02-15T00:09:16;21.50;;;11.68;;
79009;SDS011;73031;44.726;37.760;2024-02-15T00:10:17;19.17;;;11.88;;
79009;SDS011;73031;44.726;37.760;2024-02-15T00:11:18;20.48;;;11.75;;
79009;SDS011;73031;44.726;37.760;2024-02-15T00:12:20;19.95;;;11.60;;
79009;SDS011;73031;44.726;37.760;2024-02-15T00:13:21;20.65;;;11.43;;
79009;SDS011;73031;44.726;37.760;2024-02-15T00:14:23;22.17;;;11.68;;
79009;SDS011;73031;44.726;37.760;2024-02-15T00:15:24;22.83;;;11.70;;
79009;SDS011;73031;44.726;37.760;2024-02-15T00:16:25;22.00;;;11.98;;
79009;SDS011;73031;44.726;37.760;2024-02-15T00:17:28;20.75;;;12.50;;
79009;SDS011;73031;44.726;37.760;2024-02-15T00:19:34;22.65;;;13.27;;
79009;SDS011;73031;44.726;37.760;2024-02-15T00:20:36;27.00;;;11.93;;
79009;SDS011;73031;44.726;37.760;2024-02-15T00:21:42;18.27;;;11.73;;
79009;SDS011;73031;44.726;37.760;2024-02-15T00:22:44;19.23;;;11.45;;
79009;SDS011;73031;44.726;37.760;2024-02-15T00:23:45;17.05;;;11.15;;
79009;SDS011;73031;44.726;37.760;2024-02-15T00:24:46;23.70;;;10.98;;
79009;SDS011;73031;44.726;37.760;2024-02-15T00:25:49;20.80;;;10.88;;
79009;SDS011;73031;44.726;37.760;2024-02-15T00:26:50;19.40;;;11.07;;
79009;SDS011;73031;44.726;37.760;2024-02-15T00:27:51;19.10;;;11.40;;
79009;SDS011;73031;44.726;37.760;2024-02-15T00:28:52;16.67;;;11.00;;
79009;SDS011;73031;44.726;37.760;2024-02-15T00:29:53;24.58;;;12.40;;
79009;SDS011;73031;44.726;37.760;2024-02-15T00:30:54;19.83;;;11.65;;
79009;SDS011;73031;44.726;37.760;2024-02-15T00:31:56;19.38;;;11.20;;
79009;SDS011;73031;44.726;37.760;2024-02-15T00:32:57;21.85;;;10.85;;
79009;SDS011;73031;44.726;37.760;2024-02-15T00:33:58;20.00;;;10.55;;
79009;SDS011;73031;44.726;37.760;2024-02-15T00:34:59;22.50;;;12.13;;
79009;SDS011;73031;44.726;37.760;2024-02-15T00:36:00;23.00;;;10.90;;
79009;SDS011;73031;44.726;37.760;2024-02-15T00:37:02;18.35;;;10.30;;
79009;SDS011;73031;44.726;37.760;2024-02-15T00:38:03;31.50;;;11.48;;
79009;SDS011;73031;44.726;37.760;2024-02-15T00:39:04;23.00;;;12.55;;
79009;SDS011;73031;44.726;37.760;2024-02-15T00:40:06;20.30;;;11.38;;
79009;SDS011;73031;44.726;37.760;2024-02-15T00:41:08;17.25;;;11.27;;
79009;SDS011;73031;44.726;37.760;2024-02-15T00:42:09;18.88;;;11.65;;
79009;SDS011;73031;44.726;37.760;2024-02-15T00:43:10;20.98;;;12.52;;
79009;SDS011;73031;44.726;37.760;2024-02-15T00:44:11;18.23;;;11.15;;
79009;SDS011;73031;44.726;37.760;2024-02-15T00:45:12;20.10;;;11.43;;
79009;SDS011;73031;44.726;37.760;2024-02-15T00:46:13;18.05;;;10.90;;
79009;SDS011;73031;44.726;37.760;2024-02-15T00:47:16;19.05;;;11.15;;
79009;SDS011;73031;44.726;37.760;2024-02-15T00:48:21;19.73;;;11.27;;
79009;SDS011;73031;44.726;37.760;2024-02-15T00:49:22;23.52;;;11.63;;
79009;SDS011;73031;44.726;37.760;2024-02-15T00:50:23;28.73;;;11.90;;
79009;SDS011;73031;44.726;37.760;2024-02-15T00:51:24;25.67;;;11.82;;
79009;SDS011;73031;44.726;37.760;2024-02-15T00:52:25;19.10;;;11.60;;
79009;SDS011;73031;44.726;37.760;2024-02-15T00:53:26;21.50;;;11.05;;
79009;SDS011;73031;44.726;37.760;2024-02-15T00:54:27;24.85;;;11.63;;
79009;SDS011;73031;44.726;37.760;2024-02-15T00:55:28;23.42;;;10.45;;
79009;SDS011;73031;44.726;37.760;2024-02-15T00:56:30;22.65;;;11.63;;
79009;SDS011;73031;44.726;37.760;2024-02-15T00:57:33;19.60;;;11.13;;
79009;SDS011;73031;44.726;37.760;2024-02-15T00:58:34;20.45;;;10.70;;
79009;SDS011;73031;44.726;37.760;2024-02-15T00:59:35;18.98;;;11.32;;
79009;SDS011;73031;44.726;37.760;2024-02-15T01:00:36;16.88;;;11.00;;
79009;SDS011;73031;44.726;37.760;2024-02-15T01:01:38;19.08;;;10.52;;
79009;SDS011;73031;44.726;37.760;2024-02-15T01:02:41;19.15;;;11.05;;
79009;SDS011;73031;44.726;37.760;2024-02-15T01:03:42;22.50;;;10.77;;
79009;SDS011;73031;44.726;37.760;2024-02-15T01:04:43;20.42;;;11.27;;
79009;SDS011;73031;44.726;37.760;2024-02-15T01:05:46;21.77;;;11.00;;
79009;SDS011;73031;44.726;37.760;2024-02-15T01:06:47;17.45;;;11.85;;
79009;SDS011;73031;44.726;37.760;2024-02-15T01:07:48;19.75;;;11.07;;
79009;SDS011;73031;44.726;37.760;2024-02-15T01:08:49;28.00;;;12.63;;
79009;SDS011;73031;44.726;37.760;2024-02-15T01:09:50;25.83;;;11.18;;
79009;SDS011;73031;44.726;37.760;2024-02-15T01:10:51;19.30;;;11.10;;
79009;SDS011;73031;44.726;37.760;2024-02-15T01:11:54;24.42;;;11.38;;
79009;SDS011;73031;44.726;37.760;2024-02-15T01:12:55;23.85;;;12.10;;
79009;SDS011;73031;44.726;37.760;2024-02-15T01:13:56;24.77;;;11.73;;
79009;SDS011;73031;44.726;37.760;2024-02-15T01:14:57;19.25;;;11.48;;
79009;SDS011;73031;44.726;37.760;2024-02-15T01:15:58;23.48;;;11.23;;
79009;SDS011;73031;44.726;37.760;2024-02-15T01:17:01;18.38;;;11.20;;
79009;SDS011;73031;44.726;37.760;2024-02-15T01:18:02;18.98;;;11.80;;
79009;SDS011;73031;44.726;37.760;2024-02-15T01:19:04;18.35;;;12.07;;
79009;SDS011;73031;44.726;37.760;2024-02-15T01:20:05;22.25;;;11.38;;
79009;SDS011;73031;44.726;37.760;2024-02-15T01:21:08;20.27;;;11.43;;
79009;SDS011;73031;44.726;37.760;2024-02-15T01:22:12;22.65;;;11.48;;
79009;SDS011;73031;44.726;37.760;2024-02-15T01:23:13;21.42;;;11.18;;
79009;SDS011;73031;44.726;37.760;2024-02-15T01:24:14;18.33;;;11.57;;
79009;SDS011;73031;44.726;37.760;2024-02-15T01:25:15;19.25;;;12.25;;
79009;SDS011;73031;44.726;37.760;2024-02-15T01:26:17;18.67;;;11.85;;
79009;SDS011;73031;44.726;37.760;2024-02-15T01:27:19;21.77;;;11.48;;
79009;SDS011;73031;44.726;37.760;2024-02-15T01:28:20;21.83;;;11.18;;
79009;SDS011;73031;44.726;37.760;2024-02-15T01:29:22;22.83;;;12.50;;
79009;SDS011;73031;44.726;37.760;2024-02-15T01:30:23;20.85;;;12.15;;
79009;SDS011;73031;44.726;37.760;2024-02-15T01:31:24;18.92;;;12.32;;
79009;SDS011;73031;44.726;37.760;2024-02-15T01:32:25;24.42;;;11.63;;
79009;SDS011;73031;44.726;37.760;2024-02-15T01:33:26;21.40;;;12.70;;
79009;SDS011;73031;44.726;37.760;2024-02-15T01:34:28;20.17;;;11.27;;
79009;SDS011;73031;44.726;37.760;2024-02-15T01:35:29;29.88;;;13.38;;
79009;SDS011;73031;44.726;37.760;2024-02-15T01:36:30;25.75;;;11.73;;
79009;SDS011;73031;44.726;37.760;2024-02-15T01:37:31;21.02;;;11.40;;
79009;SDS011;73031;44.726;37.760;2024-02-15T01:38:32;21.85;;;11.20;;
79009;SDS011;73031;44.726;37.760;2024-02-15T01:39:33;23.77;;;11.95;;
79009;SDS011;73031;44.726;37.760;2024-02-15T01:40:34;24.70;;;11.80;;
79009;SDS011;73031;44.726;37.760;2024-02-15T01:41:35;22.05;;;11.93;;
79009;SDS011;73031;44.726;37.760;2024-02-15T01:42:36;25.35;;;11.80;;
79009;SDS011;73031;44.726;37.760;2024-02-15T01:43:37;28.65;;;13.23;;
79009;SDS011;73031;44.726;37.760;2024-02-15T01:44:38;23.05;;;11.02;;
79009;SDS011;73031;44.726;37.760;2024-02-15T01:45:40;21.83;;;11.90;;
79009;SDS011;73031;44.726;37.760;2024-02-15T01:46:42;18.17;;;11.38;;
79009;SDS011;73031;44.726;37.760;2024-02-15T01:47:43;23.48;;;12.07;;
79009;SDS011;73031;44.726;37.760;2024-02-15T01:48:45;20.88;;;12.32;;
79009;SDS011;73031;44.726;37.760;2024-02-15T01:49:46;20.73;;;11.35;;
79009;SDS011;73031;44.726;37.760;2024-02-15T01:50:49;23.23;;;11.65;;
79009;SDS011;73031;44.726;37.760;2024-02-15T01:51:52;20.20;;;12.60;;
79009;SDS011;73031;44.726;37.760;2024-02-15T01:52:55;19.35;;;11.38;;
79009;SDS011;73031;44.726;37.760;2024-02-15T01:53:58;20.05;;;11.48;;
79009;SDS011;73031;44.726;37.760;2024-02-15T01:55:01;20.83;;;11.88;;
79009;SDS011;73031;44.726;37.760;2024-02-15T01:56:08;19.08;;;11.63;;
79009;SDS011;73031;44.726;37.760;2024-02-15T01:57:10;40.78;;;12.30;;
79009;SDS011;73031;44.726;37.760;2024-02-15T01:58:12;21.98;;;12.30;;
79009;SDS011;73031;44.726;37.760;2024-02-15T01:59:14;21.58;;;12.30;;
79009;SDS011;73031;44.726;37.760;2024-02-15T02:00:17;20.73;;;12.57;;
79009;SDS011;73031;44.726;37.760;2024-02-15T02:01:19;21.02;;;11.55;;
79009;SDS011;73031;44.726;37.760;2024-02-15T02:02:21;21.38;;;11.63;;
79009;SDS011;73031;44.726;37.760;2024-02-15T02:03:25;20.45;;;13.52;;
79009;SDS011;73031;44.726;37.760;2024-02-15T02:04:27;21.65;;;12.75;;
79009;SDS011;73031;44.726;37.760;2024-02-15T02:05:28;22.90;;;12.38;;
79009;SDS011;73031;44.726;37.760;2024-02-15T02:06:31;20.48;;;12.00;;
79009;SDS011;73031;44.726;37.760;2024-02-15T02:07:32;24.55;;;12.20;;
79009;SDS011;73031;44.726;37.760;2024-02-15T02:08:33;25.10;;;12.63;;
79009;SDS011;73031;44.726;37.760;2024-02-15T02:09:35;22.02;;;11.80;;
79009;SDS011;73031;44.726;37.760;2024-02-15T02:10:36;23.48;;;12.00;;
79009;SDS011;73031;44.726;37.760;2024-02-15T02:11:38;20.50;;;11.93;;
79009;SDS011;73031;44.726;37.760;2024-02-15T02:12:39;20.48;;;12.35;;
79009;SDS011;73031;44.726;37.760;2024-02-15T02:13:41;22.45;;;12.55;;
79009;SDS011;73031;44.726;37.760;2024-02-15T02:14:42;21.08;;;12.23;;
79009;SDS011;73031;44.726;37.760;2024-02-15T02:15:44;22.90;;;12.80;;
79009;SDS011;73031;44.726;37.760;2024-02-15T02:16:45;22.70;;;12.57;;
79009;SDS011;73031;44.726;37.760;2024-02-15T02:17:49;26.63;;;13.15;;
79009;SDS011;73031;44.726;37.760;2024-02-15T02:18:51;20.52;;;13.38;;
79009;SDS011;73031;44.726;37.760;2024-02-15T02:19:53;21.17;;;13.10;;
79009;SDS011;73031;44.726;37.760;2024-02-15T02:20:54;19.17;;;11.98;;
79009;SDS011;73031;44.726;37.760;2024-02-15T02:21:55;21.08;;;13.40;;
79009;SDS011;73031;44.726;37.760;2024-02-15T02:23:00;20.88;;;12.77;;
79009;SDS011;73031;44.726;37.760;2024-02-15T02:24:14;18.77;;;12.30;;
79009;SDS011;73031;44.726;37.760;2024-02-15T02:25:22;19.77;;;12.90;;
79009;SDS011;73031;44.726;37.760;2024-02-15T02:26:28;19.65;;;13.15;;
79009;SDS011;73031;44.726;37.760;2024-02-15T02:27:30;19.63;;;13.35;;
79009;SDS011;73031;44.726;37.760;2024-02-15T02:28:33;20.10;;;13.10;;
79009;SDS011;73031;44.726;37.760;2024-02-15T02:29:34;23.45;;;13.98;;
79009;SDS011;73031;44.726;37.760;2024-02-15T02:30:35;22.83;;;14.02;;
79009;SDS011;73031;44.726;37.760;2024-02-15T02:31:36;20.60;;;13.40;;
79009;SDS011;73031;44.726;37.760;2024-02-15T02:32:37;22.70;;;13.57;;
79009;SDS011;73031;44.726;37.760;2024-02-15T02:33:39;20.10;;;13.55;;
79009;SDS011;73031;44.726;37.760;2024-02-15T02:34:42;23.35;;;14.48;;
79009;SDS011;73031;44.726;37.760;2024-02-15T02:35:43;22.33;;;14.18;;
79009;SDS011;73031;44.726;37.760;2024-02-15T02:36:44;23.77;;;14.23;;
79009;SDS011;73031;44.726;37.760;2024-02-15T02:37:46;25.55;;;14.48;;
79009;SDS011;73031;44.726;37.760;2024-02-15T02:38:47;24.15;;;14.90;;
79009;SDS011;73031;44.726;37.760;2024-02-15T02:39:50;23.20;;;15.55;;
79009;SDS011;73031;44.726;37.760;2024-02-15T02:40:52;22.88;;;14.95;;
79009;SDS011;73031;44.726;37.760;2024-02-15T02:41:53;21.70;;;14.98;;
79009;SDS011;73031;44.726;37.760;2024-02-15T02:42:54;22.67;;;14.93;;
79009;SDS011;73031;44.726;37.760;2024-02-15T02:44:02;22.10;;;15.07;;
79009;SDS011;73031;44.726;37.760;2024-02-15T02:45:03;25.08;;;14.27;;
79009;SDS011;73031;44.726;37.760;2024-02-15T02:46:10;32.22;;;15.50;;
79009;SDS011;73031;44.726;37.760;2024-02-15T02:47:11;23.10;;;14.82;;
79009;SDS011;73031;44.726;37.760;2024-02-15T02:48:12;27.08;;;15.50;;
79009;SDS011;73031;44.726;37.760;2024-02-15T02:49:13;21.55;;;14.70;;
79009;SDS011;73031;44.726;37.760;2024-02-15T02:50:15;24.73;;;15.60;;
79009;SDS011;73031;44.726;37.760;2024-02-15T02:51:16;26.00;;;16.13;;
79009;SDS011;73031;44.726;37.760;2024-02-15T02:52:18;23.23;;;15.27;;
79009;SDS011;73031;44.726;37.760;2024-02-15T02:53:19;27.35;;;15.25;;
79009;SDS011;73031;44.726;37.760;2024-02-15T02:54:20;26.90;;;15.93;;
79009;SDS011;73031;44.726;37.760;2024-02-15T02:55:22;34.05;;;16.70;;
79009;SDS011;73031;44.726;37.760;2024-02-15T02:56:23;24.58;;;15.18;;
79009;SDS011;73031;44.726;37.760;2024-02-15T02:57:24;24.15;;;15.30;;
79009;SDS011;73031;44.726;37.760;2024-02-15T02:58:25;28.50;;;16.75;;
79009;SDS011;73031;44.726;37.760;2024-02-15T02:59:26;29.90;;;18.10;;
79009;SDS011;73031;44.726;37.760;2024-02-15T03:00:27;28.33;;;16.15;;
79009;SDS011;73031;44.726;37.760;2024-02-15T03:01:29;24.42;;;16.20;;
79009;SDS011;73031;44.726;37.760;2024-02-15T03:02:30;26.65;;;15.43;;
79009;SDS011;73031;44.726;37.760;2024-02-15T03:03:37;26.92;;;15.95;;
79009;SDS011;73031;44.726;37.760;2024-02-15T03:04:41;23.80;;;15.82;;
79009;SDS011;73031;44.726;37.760;2024-02-15T03:05:42;24.15;;;15.48;;
79009;SDS011;73031;44.726;37.760;2024-02-15T03:06:43;25.65;;;17.33;;
79009;SDS011;73031;44.726;37.760;2024-02-15T03:07:44;27.05;;;17.40;;
79009;SDS011;73031;44.726;37.760;2024-02-15T03:08:46;26.90;;;19.42;;
79009;SDS011;73031;44.726;37.760;2024-02-15T03:09:48;29.92;;;17.85;;
79009;SDS011;73031;44.726;37.760;2024-02-15T03:10:49;32.38;;;17.60;;
79009;SDS011;73031;44.726;37.760;2024-02-15T03:11:50;23.05;;;15.93;;
79009;SDS011;73031;44.726;37.760;2024-02-15T03:12:51;28.98;;;16.92;;
79009;SDS011;73031;44.726;37.760;2024-02-15T03:13:53;28.58;;;18.02;;
79009;SDS011;73031;44.726;37.760;2024-02-15T03:14:54;25.73;;;17.70;;
79009;SDS011;73031;44.726;37.760;2024-02-15T03:15:55;26.65;;;18.30;;
79009;SDS011;73031;44.726;37.760;2024-02-15T03:16:56;26.67;;;16.13;;
79009;SDS011;73031;44.726;37.760;2024-02-15T03:17:57;28.60;;;18.23;;
79009;SDS011;73031;44.726;37.760;2024-02-15T03:18:59;25.60;;;17.00;;
79009;SDS011;73031;44.726;37.760;2024-02-15T03:20:03;25.75;;;17.30;;
79009;SDS011;73031;44.726;37.760;2024-02-15T03:21:28;27.95;;;16.77;;
79009;SDS011;73031;44.726;37.760;2024-02-15T03:22:29;32.70;;;17.67;;
79009;SDS011;73031;44.726;37.760;2024-02-15T03:23:30;33.53;;;19.10;;
79009;SDS011;73031;44.726;37.760;2024-02-15T03:24:33;26.42;;;17.83;;
79009;SDS011;73031;44.726;37.760;2024-02-15T03:25:34;30.00;;;17.98;;
79009;SDS011;73031;44.726;37.760;2024-02-15T03:26:36;30.65;;;18.75;;
79009;SDS011;73031;44.726;37.760;2024-02-15T03:27:40;29.65;;;18.70;;
79009;SDS011;73031;44.726;37.760;2024-02-15T03:28:41;31.58;;;19.92;;
79009;SDS011;73031;44.726;37.760;2024-02-15T03:29:42;28.92;;;18.95;;
79009;SDS011;73031;44.726;37.760;2024-02-15T03:30:44;29.50;;;19.17;;
79009;SDS011;73031;44.726;37.760;2024-02-15T03:31:46;29.95;;;19.38;;
79009;SDS011;73031;44.726;37.760;2024-02-15T03:32:48;29.80;;;19.15;;
79009;SDS011;73031;44.726;37.760;2024-02-15T03:33:51;30.48;;;18.38;;
79009;SDS011;73031;44.726;37.760;2024-02-15T03:34:53;28.58;;;18.10;;
79009;SDS011;73031;44.726;37.760;2024-02-15T03:35:54;28.00;;;17.35;;
79009;SDS011;73031;44.726;37.760;2024-02-15T03:37:00;43.17;;;20.77;;
79009;SDS011;73031;44.726;37.760;2024-02-15T03:38:07;29.05;;;18.75;;
79009;SDS011;73031;44.726;37.760;2024-02-15T03:39:09;35.53;;;19.20;;
79009;SDS011;73031;44.726;37.760;2024-02-15T03:40:10;31.42;;;18.85;;
79009;SDS011;73031;44.726;37.760;2024-02-15T03:41:13;28.50;;;18.58;;
79009;SDS011;73031;44.726;37.760;2024-02-15T03:42:14;30.42;;;19.52;;
79009;SDS011;73031;44.726;37.760;2024-02-15T03:43:15;30.30;;;19.25;;
79009;SDS011;73031;44.726;37.760;2024-02-15T03:44:17;29.67;;;17.80;;
79009;SDS011;73031;44.726;37.760;2024-02-15T03:45:20;29.40;;;18.27;;
79009;SDS011;73031;44.726;37.760;2024-02-15T03:46:23;30.83;;;18.67;;
79009;SDS011;73031;44.726;37.760;2024-02-15T03:47:24;33.67;;;21.38;;
79009;SDS011;73031;44.726;37.760;2024-02-15T03:48:25;33.17;;;18.52;;
79009;SDS011;73031;44.726;37.760;2024-02-15T03:49:26;29.23;;;19.40;;
79009;SDS011;73031;44.726;37.760;2024-02-15T03:50:27;34.03;;;20.55;;
79009;SDS011;73031;44.726;37.760;2024-02-15T03:51:29;31.27;;;19.30;;
79009;SDS011;73031;44.726;37.760;2024-02-15T03:52:32;31.50;;;19.95;;
79009;SDS011;73031;44.726;37.760;2024-02-15T03:53:33;33.90;;;19.98;;
79009;SDS011;73031;44.726;37.760;2024-02-15T03:54:36;38.25;;;20.30;;
79009;SDS011;73031;44.726;37.760;2024-02-15T03:55:37;35.80;;;19.38;;
79009;SDS011;73031;44.726;37.760;2024-02-15T03:56:48;32.22;;;19.63;;
79009;SDS011;73031;44.726;37.760;2024-02-15T03:57:52;36.00;;;20.63;;
79009;SDS011;73031;44.726;37.760;2024-02-15T03:58:55;36.40;;;20.88;;
79009;SDS011;73031;44.726;37.760;2024-02-15T03:59:58;30.00;;;19.27;;
79009;SDS011;73031;44.726;37.760;2024-02-15T04:00:59;30.80;;;19.60;;
79009;SDS011;73031;44.726;37.760;2024-02-15T04:02:00;35.33;;;20.08;;
79009;SDS011;73031;44.726;37.760;2024-02-15T04:03:04;34.35;;;19.92;;
79009;SDS011;73031;44.726;37.760;2024-02-15T04:04:05;34.75;;;20.65;;
79009;SDS011;73031;44.726;37.760;2024-02-15T04:05:07;38.03;;;20.85;;
79009;SDS011;73031;44.726;37.760;2024-02-15T04:06:09;32.00;;;20.20;;
79009;SDS011;73031;44.726;37.760;2024-02-15T04:07:11;34.80;;;20.77;;
79009;SDS011;73031;44.726;37.760;2024-02-15T04:08:13;34.95;;;21.17;;
79009;SDS011;73031;44.726;37.760;2024-02-15T04:09:16;35.58;;;21.50;;
79009;SDS011;73031;44.726;37.760;2024-02-15T04:10:18;35.05;;;20.05;;
79009;SDS011;73031;44.726;37.760;2024-02-15T04:11:19;31.85;;;20.17;;
79009;SDS011;73031;44.726;37.760;2024-02-15T04:12:20;34.53;;;20.73;;
79009;SDS011;73031;44.726;37.760;2024-02-15T04:13:22;38.05;;;20.13;;
79009;SDS011;73031;44.726;37.760;2024-02-15T04:14:23;34.10;;;21.10;;
79009;SDS011;73031;44.726;37.760;2024-02-15T04:15:24;36.65;;;21.20;;
79009;SDS011;73031;44.726;37.760;2024-02-15T04:16:25;35.58;;;19.83;;
79009;SDS011;73031;44.726;37.760;2024-02-15T04:17:27;31.40;;;19.40;;
79009;SDS011;73031;44.726;37.760;2024-02-15T04:18:28;32.55;;;20.38;;
79009;SDS011;73031;44.726;37.760;2024-02-15T04:19:32;33.25;;;20.77;;
79009;SDS011;73031;44.726;37.760;2024-02-15T04:20:33;37.35;;;20.98;;
79009;SDS011;73031;44.726;37.760;2024-02-15T04:21:34;32.22;;;20.90;;
79009;SDS011;73031;44.726;37.760;2024-02-15T04:22:35;42.20;;;21.25;;
79009;SDS011;73031;44.726;37.760;2024-02-15T04:23:42;35.63;;;21.80;;
79009;SDS011;73031;44.726;37.760;2024-02-15T04:24:45;37.17;;;21.17;;
79009;SDS011;73031;44.726;37.760;2024-02-15T04:25:46;35.67;;;21.55;;
79009;SDS011;73031;44.726;37.760;2024-02-15T04:26:51;34.05;;;21.25;;
79009;SDS011;73031;44.726;37.760;2024-02-15T04:27:52;41.25;;;22.48;;
79009;SDS011;73031;44.726;37.760;2024-02-15T04:28:53;42.20;;;22.52;;
79009;SDS011;73031;44.726;37.760;2024-02-15T04:29:54;39.60;;;22.75;;
79009;SDS011;73031;44.726;37.760;2024-02-15T04:30:55;36.85;;;22.30;;
79009;SDS011;73031;44.726;37.760;2024-02-15T04:31:57;33.55;;;19.73;;
79009;SDS011;73031;44.726;37.760;2024-02-15T04:32:58;35.47;;;22.70;;
79009;SDS011;73031;44.726;37.760;2024-02-15T04:33:59;40.55;;;22.75;;
79009;SDS011;73031;44.726;37.760;2024-02-15T04:35:01;37.97;;;22.33;;
79009;SDS011;73031;44.726;37.760;2024-02-15T04:36:02;38.38;;;21.67;;
79009;SDS011;73031;44.726;37.760;2024-02-15T04:37:07;38.47;;;22.48;;
79009;SDS011;73031;44.726;37.760;2024-02-15T04:38:08;34.25;;;22.02;;
79009;SDS011;73031;44.726;37.760;2024-02-15T04:39:09;44.75;;;23.20;;
79009;SDS011;73031;44.726;37.760;2024-02-15T04:40:12;40.35;;;21.95;;
79009;SDS011;73031;44.726;37.760;2024-02-15T04:41:14;35.05;;;21.15;;
79009;SDS011;73031;44.726;37.760;2024-02-15T04:42:15;40.17;;;21.30;;
79009;SDS011;73031;44.726;37.760;2024-02-15T04:43:19;37.15;;;21.48;;
79009;SDS011;73031;44.726;37.760;2024-02-15T04:44:20;37.50;;;20.98;;
79009;SDS011;73031;44.726;37.760;2024-02-15T04:45:21;34.75;;;20.92;;
79009;SDS011;73031;44.726;37.760;2024-02-15T04:46:22;39.30;;;21.42;;
79009;SDS011;73031;44.726;37.760;2024-02-15T04:47:25;35.92;;;21.65;;
79009;SDS011;73031;44.726;37.760;2024-02-15T04:48:26;37.35;;;21.73;;
79009;SDS011;73031;44.726;37.760;2024-02-15T04:49:27;40.33;;;22.95;;
79009;SDS011;73031;44.726;37.760;2024-02-15T04:50:29;39.13;;;22.40;;
79009;SDS011;73031;44.726;37.760;2024-02-15T04:51:30;39.80;;;22.17;;
79009;SDS011;73031;44.726;37.760;2024-02-15T04:52:32;32.72;;;20.67;;
79009;SDS011;73031;44.726;37.760;2024-02-15T04:53:33;37.70;;;21.77;;
79009;SDS011;73031;44.726;37.760;2024-02-15T04:54:36;36.00;;;23.13;;
79009;SDS011;73031;44.726;37.760;2024-02-15T04:55:38;36.63;;;22.17;;
79009;SDS011;73031;44.726;37.760;2024-02-15T04:56:40;38.08;;;21.75;;
79009;SDS011;73031;44.726;37.760;2024-02-15T04:57:41;41.70;;;22.45;;
79009;SDS011;73031;44.726;37.760;2024-02-15T04:58:42;46.92;;;23.17;;
79009;SDS011;73031;44.726;37.760;2024-02-15T04:59:47;38.22;;;22.75;;
79009;SDS011;73031;44.726;37.760;2024-02-15T05:00:50;39.20;;;21.73;;
79009;SDS011;73031;44.726;37.760;2024-02-15T05:01:54;41.92;;;21.48;;
79009;SDS011;73031;44.726;37.760;2024-02-15T05:02:56;36.85;;;21.88;;
79009;SDS011;73031;44.726;37.760;2024-02-15T05:03:58;33.50;;;19.63;;
79009;SDS011;73031;44.726;37.760;2024-02-15T05:04:59;37.17;;;21.75;;
79009;SDS011;73031;44.726;37.760;2024-02-15T05:06:01;38.55;;;21.15;;
79009;SDS011;73031;44.726;37.760;2024-02-15T05:07:04;35.38;;;20.98;;
79009;SDS011;73031;44.726;37.760;2024-02-15T05:08:05;37.65;;;21.42;;
79009;SDS011;73031;44.726;37.760;2024-02-15T05:09:06;40.40;;;22.75;;
79009;SDS011;73031;44.726;37.760;2024-02-15T05:10:10;42.75;;;21.38;;
79009;SDS011;73031;44.726;37.760;2024-02-15T05:11:11;35.08;;;18.23;;
79009;SDS011;73031;44.726;37.760;2024-02-15T05:12:23;32.60;;;20.45;;
79009;SDS011;73031;44.726;37.760;2024-02-15T05:13:25;37.17;;;20.73;;
79009;SDS011;73031;44.726;37.760;2024-02-15T05:14:26;33.00;;;19.83;;
79009;SDS011;73031;44.726;37.760;2024-02-15T05:15:27;36.90;;;20.50;;
79009;SDS011;73031;44.726;37.760;2024-02-15T05:16:29;37.55;;;20.38;;
79009;SDS011;73031;44.726;37.760;2024-02-15T05:17:31;38.38;;;20.42;;
79009;SDS011;73031;44.726;37.760;2024-02-15T05:18:34;36.47;;;22.60;;
79009;SDS011;73031;44.726;37.760;2024-02-15T05:19:36;37.88;;;21.67;;
79009;SDS011;73031;44.726;37.760;2024-02-15T05:20:37;39.88;;;22.00;;
79009;SDS011;73031;44.726;37.760;2024-02-15T05:21:39;37.42;;;21.17;;
79009;SDS011;73031;44.726;37.760;2024-02-15T05:22:41;52.60;;;22.48;;
79009;SDS011;73031;44.726;37.760;2024-02-15T05:23:46;37.17;;;20.38;;
79009;SDS011;73031;44.726;37.760;2024-02-15T05:24:47;36.50;;;20.90;;
79009;SDS011;73031;44.726;37.760;2024-02-15T05:25:48;35.67;;;20.40;;
79009;SDS011;73031;44.726;37.760;2024-02-15T05:26:49;34.78;;;19.48;;
79009;SDS011;73031;44.726;37.760;2024-02-15T05:27:50;36.78;;;20.50;;
79009;SDS011;73031;44.726;37.760;2024-02-15T05:28:54;37.30;;;22.08;;
79009;SDS011;73031;44.726;37.760;2024-02-15T05:29:55;33.80;;;20.35;;
79009;SDS011;73031;44.726;37.760;2024-02-15T05:31:08;31.98;;;19.23;;
79009;SDS011;73031;44.726;37.760;2024-02-15T05:32:10;33.75;;;19.65;;
79009;SDS011;73031;44.726;37.760;2024-02-15T05:33:16;36.63;;;20.52;;
79009;SDS011;73031;44.726;37.760;2024-02-15T05:34:17;37.05;;;20.48;;
79009;SDS011;73031;44.726;37.760;2024-02-15T05:35:18;34.17;;;19.92;;
79009;SDS011;73031;44.726;37.760;2024-02-15T05:36:20;34.55;;;21.30;;
79009;SDS011;73031;44.726;37.760;2024-02-15T05:37:23;34.80;;;19.77;;
79009;SDS011;73031;44.726;37.760;2024-02-15T05:38:25;34.25;;;20.02;;
79009;SDS011;73031;44.726;37.760;2024-02-15T05:39:28;31.90;;;19.90;;
79009;SDS011;73031;44.726;37.760;2024-02-15T05:40:29;33.90;;;21.13;;
79009;SDS011;73031;44.726;37.760;2024-02-15T05:41:31;34.65;;;20.02;;
79009;SDS011;73031;44.726;37.760;2024-02-15T05:42:35;33.30;;;20.20;;
79009;SDS011;73031;44.726;37.760;2024-02-15T05:43:36;41.03;;;22.33;;
79009;SDS011;73031;44.726;37.760;2024-02-15T05:44:42;38.58;;;21.67;;
79009;SDS011;73031;44.726;37.760;2024-02-15T05:45:43;33.28;;;20.25;;
79009;SDS011;73031;44.726;37.760;2024-02-15T05:46:46;35.72;;;20.77;;
79009;SDS011;73031;44.726;37.760;2024-02-15T05:47:47;35.97;;;20.75;;
79009;SDS011;73031;44.726;37.760;2024-02-15T05:48:48;33.08;;;19.20;;
79009;SDS011;73031;44.726;37.760;2024-02-15T05:49:50;34.13;;;19.95;;
79009;SDS011;73031;44.726;37.760;2024-02-15T05:50:51;37.33;;;20.33;;
79009;SDS011;73031;44.726;37.760;2024-02-15T05:51:54;32.95;;;20.30;;
79009;SDS011;73031;44.726;37.760;2024-02-15T05:52:56;34.22;;;19.75;;
79009;SDS011;73031;44.726;37.760;2024-02-15T05:53:58;34.03;;;20.67;;
79009;SDS011;73031;44.726;37.760;2024-02-15T05:55:00;29.02;;;19.67;;
79009;SDS011;73031;44.726;37.760;2024-02-15T05:56:07;30.63;;;17.80;;
79009;SDS011;73031;44.726;37.760;2024-02-15T05:57:11;33.50;;;19.77;;
79009;SDS011;73031;44.726;37.760;2024-02-15T05:58:12;36.25;;;19.85;;